Time;durP1;ratioP1;P1;durP2;ratioP2;P2;SDS_P1;SDS_P2;PMS_P1;PMS_P2;Temp;Humidity;BMP_temperature;BMP_pressure;BME280_temperature;BME280_humidity;BME280_pressure;Samples;Min_cycle;Max_cycle;Signal;HPM_P1;HPM_P2
2021/09/17 00:00:44;;;;;;;4.07;1.10;;;15.20;99.90;;;;;;4993376;28;20308;-65
2021/09/17 00:03:14;;;;;;;7.37;1.20;;;15.10;99.90;;;;;;4989596;28;20326;-65
2021/09/17 00:05:42;;;;;;;4.83;1.20;;;15.10;99.90;;;;;;4999802;28;20240;-65
2021/09/17 00:08:11;;;;;;;4.13;0.93;;;15.10;99.90;;;;;;4994056;28;20236;-65
2021/09/17 00:10:39;;;;;;;8.93;1.30;;;15.10;99.90;;;;;;4997632;28;20236;-65
2021/09/17 00:13:07;;;;;;;2.53;1.03;;;15.10;99.90;;;;;;4988771;28;20643;-65
2021/09/17 00:15:35;;;;;;;6.27;1.53;;;15.10;99.90;;;;;;4989590;28;20308;-65
2021/09/17 00:18:04;;;;;;;5.83;1.10;;;15.10;99.90;;;;;;4990428;28;20234;-65
2021/09/17 00:20:35;;;;;;;4.50;0.90;;;15.10;99.90;;;;;;4991605;28;20257;-64
2021/09/17 00:23:03;;;;;;;5.47;1.00;;;15.10;99.90;;;;;;4994119;28;20833;-65
2021/09/17 00:25:31;;;;;;;4.63;1.00;;;15.10;99.90;;;;;;4990398;28;20726;-65
2021/09/17 00:28:00;;;;;;;8.07;1.30;;;15.20;99.90;;;;;;4994893;28;20575;-65
2021/09/17 00:30:29;;;;;;;5.60;1.30;;;15.20;99.90;;;;;;4984672;28;20245;-65
2021/09/17 00:32:57;;;;;;;2.57;0.77;;;15.30;99.90;;;;;;4990226;28;20244;-65
2021/09/17 00:35:26;;;;;;;3.77;0.93;;;15.30;99.90;;;;;;4993493;28;20226;-65
2021/09/17 00:37:55;;;;;;;6.43;1.33;;;15.30;99.90;;;;;;4990051;28;20248;-65
2021/09/17 00:40:23;;;;;;;9.03;1.33;;;15.30;99.90;;;;;;4993320;28;20265;-65
2021/09/17 00:42:51;;;;;;;3.70;0.80;;;15.20;99.90;;;;;;4988206;28;21075;-65
2021/09/17 00:45:19;;;;;;;3.00;0.80;;;15.30;99.90;;;;;;4994017;28;20636;-65
2021/09/17 00:47:47;;;;;;;4.23;0.90;;;15.30;99.90;;;;;;4995971;28;20288;-65
2021/09/17 00:50:18;;;;;;;2.93;1.00;;;15.20;99.90;;;;;;4998232;28;20267;-65
2021/09/17 00:52:48;;;;;;;2.90;0.90;;;15.20;99.90;;;;;;4996933;28;20238;-65
2021/09/17 00:55:18;;;;;;;3.97;0.93;;;15.30;99.90;;;;;;4989145;28;20705;-66
2021/09/17 00:57:47;;;;;;;5.97;1.40;;;15.30;99.90;;;;;;4990768;28;20242;-65
2021/09/17 01:00:16;;;;;;;5.57;0.93;;;15.30;99.90;;;;;;4985695;28;20709;-65
2021/09/17 01:02:44;;;;;;;3.27;0.80;;;15.30;99.90;;;;;;4991390;28;20552;-65
2021/09/17 01:05:14;;;;;;;5.37;1.10;;;15.30;99.90;;;;;;5000381;28;20348;-65
2021/09/17 01:07:43;;;;;;;4.20;1.00;;;15.30;99.90;;;;;;4997473;28;20238;-65
2021/09/17 01:10:12;;;;;;;4.60;1.00;;;15.20;99.90;;;;;;4996074;28;20233;-65
2021/09/17 01:12:42;;;;;;;4.90;0.97;;;15.20;99.90;;;;;;4991918;28;20730;-65
2021/09/17 01:15:12;;;;;;;5.43;0.80;;;15.20;99.90;;;;;;4995776;28;20240;-65
2021/09/17 01:17:43;;;;;;;2.97;0.80;;;15.20;99.90;;;;;;4999801;28;20470;-65
2021/09/17 01:20:14;;;;;;;5.90;1.00;;;15.20;99.90;;;;;;4990710;28;20628;-65
2021/09/17 01:22:44;;;;;;;5.43;0.80;;;15.20;99.90;;;;;;4986682;28;20265;-65
2021/09/17 01:25:15;;;;;;;4.03;0.80;;;15.20;99.90;;;;;;4988488;28;20260;-65
2021/09/17 01:27:44;;;;;;;6.03;1.00;;;15.30;99.90;;;;;;4990962;28;20748;-65
2021/09/17 01:30:14;;;;;;;2.53;0.80;;;15.30;99.90;;;;;;4989047;28;20258;-65
2021/09/17 01:32:42;;;;;;;4.10;0.93;;;15.30;99.90;;;;;;4982979;28;20245;-65
2021/09/17 01:35:12;;;;;;;4.20;1.00;;;15.30;99.90;;;;;;4990411;28;20957;-65
2021/09/17 01:37:40;;;;;;;4.07;1.23;;;15.30;99.90;;;;;;4990525;28;20431;-65
2021/09/17 01:40:12;;;;;;;1.23;0.47;;;15.20;99.90;;;;;;4990847;28;20237;-65
2021/09/17 01:42:41;;;;;;;6.77;0.90;;;15.20;99.90;;;;;;4998907;28;20242;-65
2021/09/17 01:45:10;;;;;;;4.17;0.87;;;15.10;99.90;;;;;;4988808;28;20303;-64
2021/09/17 01:47:38;;;;;;;3.67;1.30;;;15.20;99.90;;;;;;4996991;28;20255;-65
2021/09/17 01:50:08;;;;;;;3.97;0.90;;;15.10;99.90;;;;;;4992566;28;20245;-65
2021/09/17 01:52:36;;;;;;;1.47;0.63;;;15.10;99.90;;;;;;4993071;28;20284;-65
2021/09/17 01:55:06;;;;;;;6.17;1.03;;;15.10;99.90;;;;;;4990604;28;20233;-65
2021/09/17 01:57:36;;;;;;;4.10;0.80;;;15.10;99.90;;;;;;4990948;28;20598;-65
2021/09/17 02:00:11;;;;;;;4.63;1.10;;;15.20;99.90;;;;;;4996174;28;20237;-65
2021/09/17 02:02:39;;;;;;;4.60;0.90;;;15.20;99.90;;;;;;4983126;28;20606;-65
2021/09/17 02:05:10;;;;;;;6.00;0.80;;;15.20;99.90;;;;;;4988404;28;20249;-65
2021/09/17 02:07:38;;;;;;;6.30;0.90;;;15.20;99.90;;;;;;4981480;28;20753;-65
2021/09/17 02:10:09;;;;;;;4.47;0.80;;;15.20;99.90;;;;;;4993256;28;20234;-66
2021/09/17 02:12:38;;;;;;;4.80;1.10;;;15.20;99.90;;;;;;4988196;28;20269;-65
2021/09/17 02:15:08;;;;;;;4.07;0.90;;;15.30;99.90;;;;;;4992943;28;20264;-65
2021/09/17 02:17:37;;;;;;;5.83;0.80;;;15.20;99.90;;;;;;4995143;28;20757;-65
2021/09/17 02:20:07;;;;;;;3.80;1.17;;;15.20;99.90;;;;;;4997054;28;20726;-65
2021/09/17 02:22:35;;;;;;;2.60;0.90;;;15.20;99.90;;;;;;4987662;28;20239;-65
2021/09/17 02:25:05;;;;;;;2.87;0.80;;;15.20;99.90;;;;;;4993750;28;20725;-65
2021/09/17 02:27:34;;;;;;;7.60;0.90;;;15.20;99.90;;;;;;4990273;28;20320;-65
2021/09/17 02:30:04;;;;;;;3.13;0.83;;;15.30;99.90;;;;;;4990367;28;20238;-65
2021/09/17 02:32:32;;;;;;;4.70;0.73;;;15.40;99.90;;;;;;4990975;28;20579;-65
2021/09/17 02:35:01;;;;;;;5.20;0.90;;;15.30;99.90;;;;;;4991151;28;20736;-65
2021/09/17 02:37:29;;;;;;;4.07;0.97;;;15.30;99.90;;;;;;4991402;28;20238;-65
2021/09/17 02:39:57;;;;;;;5.70;0.90;;;15.30;99.90;;;;;;5001263;28;20705;-65
2021/09/17 02:42:25;;;;;;;4.50;0.90;;;15.30;99.90;;;;;;4995901;28;20222;-65
2021/09/17 02:44:54;;;;;;;2.90;0.70;;;15.40;99.90;;;;;;4993497;28;20268;-65
2021/09/17 02:47:23;;;;;;;7.13;0.90;;;15.30;99.90;;;;;;4994208;28;20743;-65
2021/09/17 02:49:51;;;;;;;2.93;0.77;;;15.20;99.90;;;;;;4997257;28;20323;-65
2021/09/17 02:52:21;;;;;;;4.27;1.00;;;15.30;99.90;;;;;;5005450;28;20244;-65
2021/09/17 02:54:49;;;;;;;3.93;1.00;;;15.30;99.90;;;;;;4995352;28;20225;-65
2021/09/17 02:57:17;;;;;;;3.07;0.90;;;15.40;99.90;;;;;;4990315;28;20597;-65
2021/09/17 02:59:45;;;;;;;2.93;0.80;;;15.40;99.90;;;;;;5001150;28;20648;-65
2021/09/17 03:02:14;;;;;;;4.43;0.77;;;15.40;99.90;;;;;;4997140;28;20236;-65
2021/09/17 03:04:44;;;;;;;2.30;1.10;;;15.30;99.90;;;;;;4991377;28;20255;-64
2021/09/17 03:07:12;;;;;;;2.27;0.80;;;15.20;99.90;;;;;;4994134;28;20241;-65
2021/09/17 03:09:40;;;;;;;3.97;0.80;;;15.30;99.90;;;;;;4989976;28;20725;-65
2021/09/17 03:12:08;;;;;;;2.20;0.70;;;15.30;99.90;;;;;;4993994;28;20233;-65
2021/09/17 03:14:37;;;;;;;3.57;0.63;;;15.40;99.90;;;;;;4994588;28;20286;-65
2021/09/17 03:17:05;;;;;;;2.13;0.70;;;15.40;99.90;;;;;;4989650;28;20276;-65
2021/09/17 03:19:33;;;;;;;5.73;0.87;;;15.40;99.90;;;;;;4990690;28;20257;-65
2021/09/17 03:22:03;;;;;;;2.97;0.80;;;15.50;99.90;;;;;;4992475;28;20234;-65
2021/09/17 03:24:31;;;;;;;2.97;0.70;;;15.40;99.90;;;;;;4998850;28;20403;-65
2021/09/17 03:26:59;;;;;;;3.23;0.80;;;15.40;99.90;;;;;;4992181;28;20238;-65
2021/09/17 03:29:27;;;;;;;3.30;0.63;;;15.40;99.90;;;;;;4995321;28;20233;-65
2021/09/17 03:31:56;;;;;;;3.17;0.63;;;15.40;99.90;;;;;;4995436;28;20230;-65
2021/09/17 03:34:24;;;;;;;3.07;0.83;;;15.40;99.90;;;;;;4993456;28;20226;-65
2021/09/17 03:36:52;;;;;;;2.87;0.70;;;15.40;99.90;;;;;;4993134;28;20320;-65
2021/09/17 03:39:21;;;;;;;3.03;0.60;;;15.40;99.90;;;;;;4992023;28;20241;-65
2021/09/17 03:41:49;;;;;;;3.07;0.70;;;15.50;99.90;;;;;;4989157;28;20241;-65
2021/09/17 03:44:18;;;;;;;2.43;0.73;;;15.50;99.90;;;;;;4996230;28;20221;-65
2021/09/17 03:46:46;;;;;;;2.90;1.20;;;15.50;99.90;;;;;;4997861;28;20299;-65
2021/09/17 03:49:14;;;;;;;4.47;0.90;;;15.40;99.90;;;;;;4994994;28;20233;-65
2021/09/17 03:51:42;;;;;;;2.73;0.53;;;15.40;99.90;;;;;;5001197;28;20276;-65
2021/09/17 03:54:11;;;;;;;3.53;0.60;;;15.30;99.90;;;;;;4997378;28;20236;-64
2021/09/17 03:56:40;;;;;;;4.87;1.17;;;15.20;99.90;;;;;;4999303;28;20605;-65
2021/09/17 03:59:08;;;;;;;3.57;0.60;;;15.20;99.90;;;;;;4997901;28;20241;-65
2021/09/17 04:01:36;;;;;;;2.30;0.60;;;15.20;99.90;;;;;;4989206;28;20230;-65
2021/09/17 04:04:05;;;;;;;2.80;0.80;;;15.20;99.90;;;;;;4991879;28;20669;-65
2021/09/17 04:06:33;;;;;;;3.87;0.80;;;15.20;99.90;;;;;;4995853;28;20237;-65
2021/09/17 04:09:01;;;;;;;2.70;0.53;;;15.10;99.90;;;;;;5001568;28;20612;-65
2021/09/17 04:11:29;;;;;;;1.63;0.50;;;15.10;99.90;;;;;;4991759;28;20291;-65
2021/09/17 04:13:58;;;;;;;3.20;0.87;;;15.20;99.90;;;;;;4992953;28;20221;-65
2021/09/17 04:16:27;;;;;;;1.43;0.50;;;15.20;99.90;;;;;;4995991;28;20241;-64
2021/09/17 04:18:55;;;;;;;0.83;0.43;;;15.30;99.90;;;;;;4988789;28;20683;-65
2021/09/17 04:21:23;;;;;;;2.17;0.50;;;15.20;99.90;;;;;;4991632;28;20300;-65
2021/09/17 04:23:51;;;;;;;2.97;0.63;;;15.20;99.90;;;;;;4995592;28;20312;-65
2021/09/17 04:26:19;;;;;;;1.03;0.50;;;15.20;99.90;;;;;;4991176;28;20292;-65
2021/09/17 04:28:47;;;;;;;1.00;0.40;;;15.30;99.90;;;;;;4992979;28;20678;-65
2021/09/17 04:31:17;;;;;;;1.63;0.40;;;15.30;99.90;;;;;;4992195;28;20616;-65
2021/09/17 04:33:45;;;;;;;3.30;0.50;;;15.30;99.90;;;;;;4986235;28;20244;-65
2021/09/17 04:36:13;;;;;;;1.50;0.43;;;15.30;99.90;;;;;;4994235;28;21009;-65
2021/09/17 04:38:41;;;;;;;2.10;0.60;;;15.30;99.90;;;;;;4985941;28;20776;-65
2021/09/17 04:41:09;;;;;;;2.93;0.43;;;15.30;99.90;;;;;;4997649;28;20265;-65
2021/09/17 04:43:37;;;;;;;1.30;0.80;;;15.30;99.90;;;;;;4984099;28;20594;-65
2021/09/17 04:46:05;;;;;;;4.60;0.90;;;15.30;99.90;;;;;;4981995;28;20324;-65
2021/09/17 04:48:35;;;;;;;2.50;0.50;;;15.40;99.90;;;;;;5000801;28;20321;-65
2021/09/17 04:51:03;;;;;;;4.70;1.17;;;15.30;99.90;;;;;;4988005;28;20328;-65
2021/09/17 04:53:31;;;;;;;3.13;0.77;;;15.30;99.90;;;;;;4991152;28;20226;-65
2021/09/17 04:55:59;;;;;;;1.87;0.53;;;15.30;99.90;;;;;;4996245;28;20250;-65
2021/09/17 04:58:43;;;;;;;2.30;0.60;;;15.30;99.90;;;;;;4973365;28;20230;-64
2021/09/17 05:01:12;;;;;;;1.40;0.50;;;15.30;99.90;;;;;;4991643;28;20233;-65
2021/09/17 05:03:43;;;;;;;1.10;0.40;;;15.30;99.90;;;;;;4987300;28;20718;-65
2021/09/17 05:06:11;;;;;;;1.63;0.60;;;15.20;99.90;;;;;;4986827;28;20237;-65
2021/09/17 05:08:39;;;;;;;1.20;0.40;;;15.20;99.90;;;;;;4988790;28;20704;-65
2021/09/17 05:11:08;;;;;;;2.53;0.57;;;15.10;99.90;;;;;;4989491;28;20680;-65
2021/09/17 05:13:36;;;;;;;1.40;0.50;;;14.90;99.90;;;;;;4982240;28;20237;-64
2021/09/17 05:16:04;;;;;;;1.50;0.40;;;14.90;99.90;;;;;;4982549;28;20328;-67
2021/09/17 05:18:32;;;;;;;2.87;0.50;;;14.90;99.90;;;;;;4983695;28;20237;-65
2021/09/17 05:21:02;;;;;;;1.90;0.47;;;14.90;99.90;;;;;;4982684;28;20340;-65
2021/09/17 05:23:34;;;;;;;1.97;0.50;;;14.80;99.90;;;;;;4982723;28;20437;-65
2021/09/17 05:26:03;;;;;;;2.07;0.60;;;14.80;99.90;;;;;;4988595;28;20253;-65
2021/09/17 05:28:32;;;;;;;1.73;0.50;;;14.80;99.90;;;;;;4983681;28;20249;-65
2021/09/17 05:31:00;;;;;;;3.90;0.60;;;14.90;99.90;;;;;;4989856;28;20244;-65
2021/09/17 05:33:28;;;;;;;2.37;0.40;;;14.80;99.90;;;;;;4980071;28;20249;-65
2021/09/17 05:35:56;;;;;;;0.80;0.70;;;14.90;99.90;;;;;;4983357;28;20594;-65
2021/09/17 05:38:26;;;;;;;1.30;0.40;;;14.80;99.90;;;;;;4989385;28;20233;-64
2021/09/17 05:40:54;;;;;;;0.83;0.40;;;14.80;99.90;;;;;;4997435;28;20329;-65
2021/09/17 05:43:22;;;;;;;0.70;0.30;;;14.80;99.90;;;;;;4990394;28;20234;-64
2021/09/17 05:45:50;;;;;;;1.77;0.33;;;14.80;99.90;;;;;;4983551;28;20237;-65
2021/09/17 05:48:18;;;;;;;1.33;0.50;;;14.80;99.90;;;;;;4998210;28;20241;-64
2021/09/17 05:50:46;;;;;;;0.50;0.40;;;14.80;99.90;;;;;;4991270;28;20238;-65
2021/09/17 05:53:15;;;;;;;0.67;0.40;;;14.80;99.90;;;;;;4983962;28;20356;-65
2021/09/17 05:55:44;;;;;;;1.17;0.37;;;14.80;99.90;;;;;;4991982;28;20238;-65
2021/09/17 05:58:13;;;;;;;1.40;0.30;;;14.90;99.90;;;;;;4984360;28;20234;-64
2021/09/17 06:00:41;;;;;;;0.57;0.30;;;14.80;99.90;;;;;;4990821;28;20744;-65
2021/09/17 06:03:09;;;;;;;2.13;0.47;;;14.90;99.90;;;;;;4980266;28;20238;-65
2021/09/17 06:05:37;;;;;;;1.23;0.30;;;14.90;99.90;;;;;;4984556;28;20229;-65
2021/09/17 06:08:05;;;;;;;2.27;0.47;;;15.00;99.90;;;;;;4981487;28;20291;-65
2021/09/17 06:10:34;;;;;;;0.67;0.30;;;15.00;99.90;;;;;;4990006;28;20441;-65
2021/09/17 06:13:04;;;;;;;0.73;0.33;;;15.00;99.90;;;;;;4989793;28;20265;-65
2021/09/17 06:15:32;;;;;;;0.97;0.43;;;15.00;99.90;;;;;;4981950;28;20244;-64
2021/09/17 06:18:00;;;;;;;1.57;0.30;;;15.10;99.90;;;;;;4977721;28;20277;-64
2021/09/17 06:20:28;;;;;;;1.60;0.40;;;15.10;99.90;;;;;;4982113;28;20246;-65
2021/09/17 06:22:56;;;;;;;1.67;0.30;;;15.10;99.90;;;;;;4985310;28;20300;-64
2021/09/17 06:25:25;;;;;;;0.57;0.30;;;15.10;99.90;;;;;;4998855;28;20308;-65
2021/09/17 06:27:53;;;;;;;1.60;0.50;;;15.10;99.90;;;;;;4997832;28;20321;-65
2021/09/17 06:30:23;;;;;;;1.20;0.40;;;15.30;99.90;;;;;;4985088;28;20700;-65
2021/09/17 06:32:51;;;;;;;1.70;0.50;;;15.40;99.90;;;;;;4980546;28;20242;-65
2021/09/17 06:35:19;;;;;;;0.73;0.40;;;15.40;99.90;;;;;;4982533;28;20226;-65
2021/09/17 06:37:49;;;;;;;1.07;0.40;;;15.40;99.90;;;;;;4988710;28;20233;-65
2021/09/17 06:40:18;;;;;;;2.63;0.40;;;15.40;99.90;;;;;;4996759;28;20244;-65
2021/09/17 06:42:47;;;;;;;1.70;0.53;;;15.40;99.90;;;;;;4991259;28;20254;-65
2021/09/17 06:45:15;;;;;;;0.70;0.40;;;15.40;99.90;;;;;;4992305;28;20330;-65
2021/09/17 06:47:46;;;;;;;2.13;0.40;;;15.40;99.90;;;;;;5000184;28;20720;-64
2021/09/17 06:50:16;;;;;;;1.40;0.40;;;15.40;99.90;;;;;;4993155;28;20765;-65
2021/09/17 06:52:48;;;;;;;0.77;0.40;;;15.50;99.90;;;;;;4996662;28;20277;-65
2021/09/17 06:55:16;;;;;;;0.60;0.30;;;15.50;99.90;;;;;;4994037;28;20249;-65
2021/09/17 06:57:47;;;;;;;0.77;0.40;;;15.70;99.90;;;;;;4984145;28;20265;-65
2021/09/17 07:00:17;;;;;;;0.47;0.20;;;15.70;99.90;;;;;;4992091;28;20608;-65
2021/09/17 07:02:46;;;;;;;0.63;0.30;;;15.70;99.90;;;;;;4987848;28;20775;-64
2021/09/17 07:05:16;;;;;;;0.73;0.20;;;15.60;99.90;;;;;;4980101;28;20643;-64
2021/09/17 07:07:44;;;;;;;0.70;0.40;;;15.70;99.90;;;;;;4987673;28;20241;-65
2021/09/17 07:10:13;;;;;;;0.37;0.30;;;15.70;99.90;;;;;;4987622;28;20248;-65
2021/09/17 07:12:41;;;;;;;1.27;0.30;;;15.70;99.90;;;;;;4989787;28;20242;-64
2021/09/17 07:15:10;;;;;;;0.77;0.30;;;15.80;99.90;;;;;;4994656;28;20233;-64
2021/09/17 07:17:39;;;;;;;1.37;0.30;;;15.70;99.90;;;;;;4992746;28;20269;-65
2021/09/17 07:20:10;;;;;;;0.70;0.37;;;15.70;99.90;;;;;;4986539;28;20233;-64
2021/09/17 07:22:38;;;;;;;0.87;0.30;;;15.70;99.90;;;;;;4986853;28;20268;-64
2021/09/17 07:25:08;;;;;;;1.33;0.30;;;15.70;99.90;;;;;;4995224;28;20718;-64
2021/09/17 07:27:37;;;;;;;0.70;0.20;;;15.80;99.90;;;;;;4984633;28;20625;-65
2021/09/17 07:30:06;;;;;;;0.60;0.30;;;15.80;99.90;;;;;;4992716;28;20241;-65
2021/09/17 07:32:35;;;;;;;1.33;0.40;;;15.80;99.90;;;;;;4996653;28;20313;-64
2021/09/17 07:35:05;;;;;;;0.37;0.20;;;15.90;99.90;;;;;;4991350;28;20654;-64
2021/09/17 07:37:34;;;;;;;0.67;0.20;;;16.00;99.90;;;;;;4987449;28;20320;-64
2021/09/17 07:40:03;;;;;;;1.43;0.40;;;16.10;99.90;;;;;;4989172;28;20716;-64
2021/09/17 07:42:31;;;;;;;1.90;0.40;;;16.30;99.90;;;;;;4986898;28;20280;-64
2021/09/17 07:45:00;;;;;;;0.27;0.20;;;16.50;99.90;;;;;;4993989;28;20234;-64
2021/09/17 07:47:28;;;;;;;0.73;0.37;;;16.50;99.90;;;;;;4991934;28;20238;-65
2021/09/17 07:49:56;;;;;;;0.37;0.20;;;16.60;99.90;;;;;;4987845;28;20245;-64
2021/09/17 07:52:24;;;;;;;1.27;0.40;;;16.80;99.90;;;;;;4992191;28;20571;-64
2021/09/17 07:54:54;;;;;;;0.87;0.30;;;17.00;99.90;;;;;;4990245;28;20755;-64
2021/09/17 07:57:22;;;;;;;0.87;0.33;;;17.30;99.90;;;;;;4988163;28;20273;-65
2021/09/17 07:59:50;;;;;;;1.20;0.30;;;17.30;99.90;;;;;;4983601;28;20249;-65
2021/09/17 08:02:21;;;;;;;0.30;0.20;;;17.30;99.90;;;;;;4986175;28;20261;-64
2021/09/17 08:04:50;;;;;;;0.50;0.30;;;17.00;99.90;;;;;;4983168;28;20242;-65
2021/09/17 08:07:18;;;;;;;0.73;0.30;;;16.90;99.90;;;;;;4983574;28;20237;-65
2021/09/17 08:09:46;;;;;;;0.60;0.30;;;16.70;99.90;;;;;;4988616;28;20336;-64
2021/09/17 08:12:15;;;;;;;1.00;0.23;;;16.50;99.90;;;;;;4982703;28;20260;-65
2021/09/17 08:14:43;;;;;;;0.23;0.23;;;16.40;99.90;;;;;;4981750;28;20240;-65
2021/09/17 08:17:12;;;;;;;0.90;0.30;;;16.30;99.90;;;;;;4982419;28;20273;-65
2021/09/17 08:19:40;;;;;;;0.67;0.40;;;16.40;99.90;;;;;;4981723;28;20233;-65
2021/09/17 08:22:08;;;;;;;0.97;0.30;;;16.50;99.90;;;;;;4984174;28;21009;-64
2021/09/17 08:24:37;;;;;;;1.30;0.30;;;16.70;99.90;;;;;;4983646;28;20891;-64
2021/09/17 08:27:05;;;;;;;0.80;0.30;;;16.80;99.90;;;;;;4980702;28;20710;-64
2021/09/17 08:29:35;;;;;;;0.67;0.30;;;16.90;99.90;;;;;;4982821;28;20249;-64
2021/09/17 08:32:04;;;;;;;0.63;0.30;;;16.90;99.90;;;;;;4980901;28;20579;-64
2021/09/17 08:34:32;;;;;;;0.57;0.20;;;17.10;99.90;;;;;;4983477;28;20336;-65
2021/09/17 08:37:07;;;;;;;1.40;0.20;;;17.20;99.90;;;;;;4984489;28;20251;-65
2021/09/17 08:39:37;;;;;;;1.63;0.30;;;17.50;99.90;;;;;;4982545;28;20273;-65
2021/09/17 08:42:07;;;;;;;0.77;0.30;;;17.60;99.90;;;;;;4982798;28;20266;-65
2021/09/17 08:45:03;;;;;;;1.60;0.40;;;17.90;99.90;;;;;;4989269;28;20242;-64
2021/09/17 08:47:32;;;;;;;2.00;0.30;;;18.00;99.90;;;;;;4988627;28;20247;-64
2021/09/17 08:52:54;;;;;;;0.93;0.30;;;18.40;99.90;;;;;;4983054;28;20253;-64
2021/09/17 08:55:23;;;;;;;0.83;0.20;;;18.50;99.90;;;;;;4982233;28;20242;-65
2021/09/17 08:57:51;;;;;;;0.60;0.20;;;18.70;99.90;;;;;;4982149;28;20303;-65
2021/09/17 09:00:43;;;;;;;1.23;0.40;;;18.80;99.90;;;;;;4982199;28;20239;-65
2021/09/17 09:03:27;;;;;;;1.00;0.30;;;18.80;99.90;;;;;;4982017;28;20270;-64
2021/09/17 09:06:15;;;;;;;0.83;0.30;;;19.00;99.90;;;;;;4980921;28;20347;-64
2021/09/17 09:08:44;;;;;;;1.70;0.30;;;18.90;99.90;;;;;;4982624;28;20266;-64
2021/09/17 09:11:18;;;;;;;0.73;0.30;;;18.70;99.90;;;;;;4981761;28;20239;-64
2021/09/17 09:14:01;;;;;;;0.80;0.40;;;18.40;99.90;;;;;;4981260;28;20239;-65
2021/09/17 09:16:31;;;;;;;0.67;0.30;;;18.10;99.90;;;;;;4982754;28;20351;-64
2021/09/17 09:19:16;;;;;;;0.37;0.20;;;17.90;99.90;;;;;;4982871;28;20234;-65
2021/09/17 09:21:46;;;;;;;0.37;0.30;;;18.10;99.90;;;;;;4985405;28;20569;-65
2021/09/17 09:24:16;;;;;;;1.27;0.30;;;18.20;99.90;;;;;;4983321;28;20234;-64
2021/09/17 09:26:46;;;;;;;0.20;0.20;;;18.30;99.90;;;;;;4979690;28;20248;-64
2021/09/17 09:29:27;;;;;;;1.47;0.30;;;18.20;99.90;;;;;;4976518;28;20238;-65
2021/09/17 09:31:57;;;;;;;0.40;0.30;;;18.50;99.90;;;;;;4982309;28;20382;-63
2021/09/17 09:34:48;;;;;;;0.63;0.30;;;18.80;99.90;;;;;;4990283;28;20796;-64
2021/09/17 09:37:20;;;;;;;0.70;0.30;;;19.50;99.90;;;;;;4985592;28;20245;-64
2021/09/17 09:39:57;;;;;;;0.60;0.30;;;19.50;99.90;;;;;;4989915;28;20819;-63
2021/09/17 09:42:36;;;;;;;1.03;0.27;;;19.70;99.90;;;;;;4990783;28;20235;-64
2021/09/17 09:45:17;;;;;;;0.97;0.40;;;19.70;99.90;;;;;;4999525;28;20242;-63
2021/09/17 09:47:49;;;;;;;0.10;0.10;;;20.00;99.90;;;;;;4987888;28;21159;-64
2021/09/17 09:50:21;;;;;;;1.03;0.30;;;20.40;99.90;;;;;;4989201;28;20283;-64
2021/09/17 09:52:50;;;;;;;0.53;0.30;;;20.50;99.90;;;;;;4988771;28;20959;-63
2021/09/17 09:55:19;;;;;;;1.93;0.47;;;20.60;99.90;;;;;;4994888;28;20247;-64
2021/09/17 09:57:56;;;;;;;0.40;0.20;;;21.00;99.90;;;;;;4820809;28;10001044;-64
2021/09/17 10:00:24;;;;;;;0.57;0.20;;;20.70;99.90;;;;;;1376860;28;10002073;-63
2021/09/17 10:02:55;;;;;;;1.20;0.40;;;20.40;99.90;;;;;;4984850;28;21074;-63
2021/09/17 10:05:27;;;;;;;0.70;0.50;;;20.20;99.90;;;;;;4991899;28;20236;-63
2021/09/17 10:07:57;;;;;;;1.10;0.40;;;19.80;99.90;;;;;;4983132;28;20272;-63
2021/09/17 10:10:25;;;;;;;0.57;0.40;;;19.50;99.90;;;;;;4993006;28;20739;-63
2021/09/17 10:12:53;;;;;;;0.43;0.30;;;19.20;99.90;;;;;;4993404;28;20243;-63
2021/09/17 10:15:22;;;;;;;0.83;0.30;;;18.90;99.90;;;;;;4982318;28;20296;-63
2021/09/17 10:17:53;;;;;;;2.17;0.40;;;18.60;99.90;;;;;;4992775;28;20727;-63
2021/09/17 10:20:35;;;;;;;0.80;0.50;;;18.30;99.90;;;;;;4994686;28;20253;-64
2021/09/17 10:23:24;;;;;;;1.43;0.40;;;18.10;99.90;;;;;;4991654;28;20377;-65
2021/09/17 10:26:01;;;;;;;1.17;0.40;;;18.50;99.90;;;;;;4997431;28;20250;-63
2021/09/17 10:28:29;;;;;;;0.53;0.30;;;18.80;99.90;;;;;;4979245;28;20435;-63
2021/09/17 10:31:10;;;;;;;0.67;0.30;;;19.00;99.90;;;;;;4989031;28;20247;-64
2021/09/17 10:33:40;;;;;;;1.20;0.30;;;19.90;99.90;;;;;;4989207;28;20240;-63
2021/09/17 10:36:08;;;;;;;1.90;0.40;;;20.10;99.90;;;;;;4993258;28;20234;-63
2021/09/17 10:38:36;;;;;;;1.37;0.50;;;19.60;99.90;;;;;;4988267;28;20266;-64
2021/09/17 10:41:06;;;;;;;0.40;0.20;;;19.30;99.90;;;;;;4979067;28;20958;-62
2021/09/17 10:43:37;;;;;;;0.63;0.30;;;18.80;99.90;;;;;;4982424;28;20675;-63
2021/09/17 10:46:33;;;;;;;3.50;0.87;;;18.40;99.90;;;;;;4994196;28;20585;-64
2021/09/17 10:49:03;;;;;;;1.57;0.43;;;18.10;99.90;;;;;;4987750;28;20249;-64
2021/09/17 10:51:34;;;;;;;0.93;0.53;;;18.10;99.90;;;;;;4990847;28;20729;-64
2021/09/17 10:54:06;;;;;;;0.97;0.37;;;18.10;99.90;;;;;;4990209;28;20562;-63
2021/09/17 10:57:06;;;;;;;3.70;0.50;;;18.00;99.90;;;;;;4989549;28;20277;-64
2021/09/17 10:59:42;;;;;;;1.10;0.30;;;18.30;99.90;;;;;;4986801;28;20279;-63
2021/09/17 11:02:11;;;;;;;1.13;0.40;;;18.80;99.90;;;;;;4988968;28;20274;-64
2021/09/17 11:04:43;;;;;;;0.37;0.30;;;19.40;99.90;;;;;;4991595;28;20784;-63
2021/09/17 11:07:34;;;;;;;4.13;0.50;;;19.80;99.90;;;;;;4985331;28;20263;-63
2021/09/17 11:10:06;;;;;;;2.17;0.50;;;19.90;99.90;;;;;;4992225;28;20297;-63
2021/09/17 11:12:37;;;;;;;0.30;0.30;;;19.90;99.90;;;;;;4979709;28;20292;-63
2021/09/17 11:15:09;;;;;;;0.50;0.40;;;19.40;99.90;;;;;;4986351;28;20247;-64
2021/09/17 11:17:48;;;;;;;1.40;0.70;;;19.10;99.90;;;;;;4987265;28;20243;-64
2021/09/17 11:20:21;;;;;;;0.73;0.30;;;18.60;99.90;;;;;;4973702;28;20533;-63
2021/09/17 11:22:54;;;;;;;0.97;0.40;;;18.40;99.90;;;;;;4980047;28;20254;-64
2021/09/17 11:25:24;;;;;;;1.10;0.47;;;18.60;99.90;;;;;;4977849;28;20770;-63
2021/09/17 11:27:53;;;;;;;0.70;0.50;;;18.80;99.90;;;;;;4975871;28;20319;-63
2021/09/17 11:30:23;;;;;;;0.83;0.33;;;19.20;99.90;;;;;;4974957;28;20244;-64
2021/09/17 11:32:52;;;;;;;1.23;0.53;;;19.70;99.90;;;;;;4979019;28;20241;-64
2021/09/17 11:35:21;;;;;;;0.90;0.40;;;20.00;99.90;;;;;;4977312;28;20524;-64
2021/09/17 11:37:51;;;;;;;0.77;0.40;;;19.60;99.90;;;;;;4980053;28;20271;-65
2021/09/17 11:40:20;;;;;;;4.63;0.40;;;18.80;99.90;;;;;;4975101;28;20242;-64
2021/09/17 11:42:48;;;;;;;1.00;0.47;;;18.30;99.90;;;;;;4980858;28;20681;-65
2021/09/17 11:45:18;;;;;;;1.23;0.50;;;18.10;99.90;;;;;;4979483;28;21278;-64
2021/09/17 11:47:50;;;;;;;1.63;0.43;;;18.30;99.90;;;;;;4980001;28;20714;-64
2021/09/17 11:50:21;;;;;;;1.63;0.40;;;18.50;99.90;;;;;;4973659;28;20244;-63
2021/09/17 11:52:51;;;;;;;0.87;0.40;;;18.70;99.90;;;;;;4975728;28;20332;-63
2021/09/17 11:55:21;;;;;;;1.03;0.40;;;19.00;99.90;;;;;;4975891;28;20247;-64
2021/09/17 11:57:51;;;;;;;1.63;0.90;;;19.20;99.90;;;;;;4975061;28;20235;-64
2021/09/17 12:00:21;;;;;;;1.43;0.57;;;19.20;99.90;;;;;;4971385;28;20254;-63
2021/09/17 12:02:53;;;;;;;1.53;0.40;;;19.00;99.90;;;;;;4976526;28;20256;-63
2021/09/17 12:05:25;;;;;;;0.53;0.30;;;18.90;99.90;;;;;;4979880;28;20258;-62
2021/09/17 12:07:56;;;;;;;0.67;0.33;;;18.80;99.90;;;;;;4981959;28;20590;-64
2021/09/17 12:10:26;;;;;;;0.83;0.33;;;18.80;99.90;;;;;;4969024;28;20245;-64
2021/09/17 12:13:00;;;;;;;1.90;0.40;;;18.60;99.90;;;;;;4984720;28;20251;-63
2021/09/17 12:15:30;;;;;;;0.87;0.40;;;18.50;99.90;;;;;;4979317;28;20266;-63
2021/09/17 12:18:01;;;;;;;2.60;0.50;;;18.50;99.90;;;;;;4980437;28;20238;-63
2021/09/17 12:20:43;;;;;;;1.37;0.70;;;18.50;99.90;;;;;;4983949;28;20246;-64
2021/09/17 12:23:14;;;;;;;1.60;0.50;;;18.50;99.90;;;;;;4978699;28;20230;-63
2021/09/17 12:25:43;;;;;;;0.97;0.43;;;18.50;99.90;;;;;;4977290;28;20266;-63
2021/09/17 12:28:18;;;;;;;2.00;0.53;;;18.40;99.90;;;;;;4975204;28;20270;-62
2021/09/17 12:30:47;;;;;;;1.17;0.47;;;18.00;99.90;;;;;;4965123;28;20270;-64
2021/09/17 12:33:21;;;;;;;1.97;0.40;;;17.90;99.90;;;;;;4975211;28;20553;-63
2021/09/17 12:35:52;;;;;;;1.90;0.50;;;17.90;99.90;;;;;;4974915;28;20329;-64
2021/09/17 12:38:21;;;;;;;0.73;0.40;;;17.90;99.90;;;;;;4971589;28;20245;-64
2021/09/17 12:40:53;;;;;;;1.37;0.30;;;17.90;99.90;;;;;;4975640;28;20240;-63
2021/09/17 12:43:42;;;;;;;3.50;0.50;;;18.10;99.90;;;;;;4976919;28;20736;-64
2021/09/17 12:46:13;;;;;;;2.07;0.50;;;18.20;99.90;;;;;;4975512;28;20264;-64
2021/09/17 12:48:43;;;;;;;0.50;0.40;;;18.20;99.90;;;;;;4975316;28;20273;-64
2021/09/17 12:51:18;;;;;;;3.10;0.50;;;18.20;99.90;;;;;;4972896;28;20239;-64
2021/09/17 12:53:48;;;;;;;1.53;0.30;;;18.40;99.90;;;;;;4975297;28;20251;-64
2021/09/17 12:56:17;;;;;;;1.60;0.50;;;18.50;99.90;;;;;;4973304;28;20246;-63
2021/09/17 12:59:06;;;;;;;0.63;0.30;;;18.40;99.90;;;;;;4973470;28;20247;-64
2021/09/17 13:01:35;;;;;;;1.63;0.30;;;18.20;99.90;;;;;;4978666;28;20248;-64
2021/09/17 13:04:04;;;;;;;2.10;0.80;;;18.10;99.90;;;;;;4976489;28;20696;-63